Hovedside
METAR-TAF:

METAR-TAF

Lufthavner :

Saurimo, Angola

breddegrad: 9-41-20S, lengdegrad: 20-25-55E, høyde over havet: 1092 m

Gjeldene værobservasjon

Denne rapporten ble laget for 5 timer og 17 minutter siden, klokken 15:00 UTC
Vind 8 kt fra Nord
Temperatur 31°C
Luftfuktighet 52%
Trykk 1018 hPa
Sikt 10 km eller mer
Få skyer i en høyde av 2500 ft
Brutte skyer i en høyde av 10000 ft

METAR: FNSA 211500Z 36008KT 9999 FEW025 BKN100 31/20 Q1018

Tid: 21:17 (20:17 UTC)

Varsel

Denne rapporten ble laget for 9 timer og 22 minutter siden, klokken 10:55 UTC
Varsel gyldig fra 21. klokken 12 UTC til 21. klokken 24 UTC
Vind 7 kt fra Øst-sørøst
Sikt 10 km eller mer
ingen skyer under 1500 m og ingen bygeskyer
Blir
fra 21. klokken 21 UTC til 21. klokken 23 UTC
Vind 2 kt fra skiftende retning
Sikt: 7000 m

TAF: FNSA 211055Z 2112/2124 12007KT CAVOK BECMG 2121/2123 VRB02KT 7000 NSC

Værobservasjoner og værvarsel for over 4000 flyplasser (METAR- og TAF-rapporter).

Tilgjengelige stasjoner er representert av de røde og gule prikkene på kartet.

Hold musepekeren over prikken for å se navnet på stasjonen.

Klikk så for å se værobservasjoner og -varsler.

For å forandre kartet kan du klikke på den grønne knappen med svart kryss for å zoome inn, på den grønne knappen med strek for å zoome ut, eller på de grønne pilene for å se tilstøtende kart.


METAR-TAF: